sensor_id;sensor_type;location;lat;lon;timestamp;pressure;altitude;pressure_sealevel;temperature;humidity
67373;BME280;54257;54.496;18.412;2023-04-19T00:02:13;100762.62;;;4.50;86.05
67373;BME280;54257;54.496;18.412;2023-04-19T00:04:39;100763.17;;;4.52;86.06
67373;BME280;54257;54.496;18.412;2023-04-19T00:07:07;100755.81;;;4.53;85.81
67373;BME280;54257;54.496;18.412;2023-04-19T00:09:34;100754.17;;;4.54;85.78
67373;BME280;54257;54.496;18.412;2023-04-19T00:12:02;100755.48;;;4.56;85.63
67373;BME280;54257;54.496;18.412;2023-04-19T00:14:29;100753.98;;;4.57;85.51
67373;BME280;54257;54.496;18.412;2023-04-19T00:16:56;100750.33;;;4.58;85.17
67373;BME280;54257;54.496;18.412;2023-04-19T00:19:24;100746.30;;;4.59;85.10
67373;BME280;54257;54.496;18.412;2023-04-19T00:21:52;100745.52;;;4.60;84.83
67373;BME280;54257;54.496;18.412;2023-04-19T00:24:19;100739.88;;;4.62;84.71
67373;BME280;54257;54.496;18.412;2023-04-19T00:26:47;100737.82;;;4.65;84.73
67373;BME280;54257;54.496;18.412;2023-04-19T00:29:14;100733.52;;;4.66;84.46
67373;BME280;54257;54.496;18.412;2023-04-19T00:31:41;100731.90;;;4.68;84.53
67373;BME280;54257;54.496;18.412;2023-04-19T00:34:08;100734.23;;;4.71;84.33
67373;BME280;54257;54.496;18.412;2023-04-19T00:36:35;100728.35;;;4.71;84.33
67373;BME280;54257;54.496;18.412;2023-04-19T00:39:02;100725.05;;;4.73;84.25
67373;BME280;54257;54.496;18.412;2023-04-19T00:41:29;100717.16;;;4.73;84.18
67373;BME280;54257;54.496;18.412;2023-04-19T00:43:56;100714.67;;;4.75;84.22
67373;BME280;54257;54.496;18.412;2023-04-19T00:46:24;100718.73;;;4.75;84.03
67373;BME280;54257;54.496;18.412;2023-04-19T00:48:52;100712.63;;;4.74;84.17
67373;BME280;54257;54.496;18.412;2023-04-19T00:51:20;100715.13;;;4.73;84.30
67373;BME280;54257;54.496;18.412;2023-04-19T00:53:47;100712.55;;;4.73;84.10
67373;BME280;54257;54.496;18.412;2023-04-19T00:56:15;100707.20;;;4.71;84.23
67373;BME280;54257;54.496;18.412;2023-04-19T00:58:44;100708.27;;;4.69;84.54
67373;BME280;54257;54.496;18.412;2023-04-19T01:01:12;100710.20;;;4.67;84.57
67373;BME280;54257;54.496;18.412;2023-04-19T01:03:39;100708.40;;;4.65;84.48
67373;BME280;54257;54.496;18.412;2023-04-19T01:06:06;100706.75;;;4.63;84.74
67373;BME280;54257;54.496;18.412;2023-04-19T01:08:33;100703.23;;;4.60;84.92
67373;BME280;54257;54.496;18.412;2023-04-19T01:11:01;100701.08;;;4.57;84.73
67373;BME280;54257;54.496;18.412;2023-04-19T01:13:28;100700.33;;;4.56;84.63
67373;BME280;54257;54.496;18.412;2023-04-19T01:15:56;100696.12;;;4.54;85.16
67373;BME280;54257;54.496;18.412;2023-04-19T01:18:23;100697.39;;;4.52;85.15
67373;BME280;54257;54.496;18.412;2023-04-19T01:20:51;100690.39;;;4.50;85.14
67373;BME280;54257;54.496;18.412;2023-04-19T01:23:18;100688.49;;;4.49;85.16
67373;BME280;54257;54.496;18.412;2023-04-19T01:25:47;100684.34;;;4.48;85.48
67373;BME280;54257;54.496;18.412;2023-04-19T01:28:17;100685.50;;;4.47;85.38
67373;BME280;54257;54.496;18.412;2023-04-19T01:30:44;100675.77;;;4.46;85.50
67373;BME280;54257;54.496;18.412;2023-04-19T01:33:11;100676.39;;;4.45;85.58
67373;BME280;54257;54.496;18.412;2023-04-19T01:35:41;100676.17;;;4.44;85.52
67373;BME280;54257;54.496;18.412;2023-04-19T01:38:08;100674.74;;;4.42;85.69
67373;BME280;54257;54.496;18.412;2023-04-19T01:40:35;100671.31;;;4.41;85.68
67373;BME280;54257;54.496;18.412;2023-04-19T01:43:02;100666.16;;;4.40;85.59
67373;BME280;54257;54.496;18.412;2023-04-19T01:45:29;100662.88;;;4.39;85.45
67373;BME280;54257;54.496;18.412;2023-04-19T01:47:59;100658.52;;;4.36;85.58
67373;BME280;54257;54.496;18.412;2023-04-19T01:50:30;100659.20;;;4.33;85.77
67373;BME280;54257;54.496;18.412;2023-04-19T01:52:58;100658.95;;;4.32;85.64
67373;BME280;54257;54.496;18.412;2023-04-19T01:55:27;100654.23;;;4.29;85.74
67373;BME280;54257;54.496;18.412;2023-04-19T01:57:55;100647.70;;;4.27;86.02
67373;BME280;54257;54.496;18.412;2023-04-19T02:00:22;100647.52;;;4.26;85.73
67373;BME280;54257;54.496;18.412;2023-04-19T02:02:49;100642.85;;;4.25;86.22
67373;BME280;54257;54.496;18.412;2023-04-19T02:05:16;100644.69;;;4.24;86.03
67373;BME280;54257;54.496;18.412;2023-04-19T02:07:43;100643.34;;;4.21;86.27
67373;BME280;54257;54.496;18.412;2023-04-19T02:10:10;100642.77;;;4.19;86.37
67373;BME280;54257;54.496;18.412;2023-04-19T02:12:39;100642.53;;;4.18;86.79
67373;BME280;54257;54.496;18.412;2023-04-19T02:15:07;100643.46;;;4.17;86.73
67373;BME280;54257;54.496;18.412;2023-04-19T02:17:34;100635.96;;;4.15;86.80
67373;BME280;54257;54.496;18.412;2023-04-19T02:20:02;100631.00;;;4.14;86.90
67373;BME280;54257;54.496;18.412;2023-04-19T02:22:30;100626.10;;;4.15;86.81
67373;BME280;54257;54.496;18.412;2023-04-19T02:24:58;100628.07;;;4.14;86.63
67373;BME280;54257;54.496;18.412;2023-04-19T02:27:25;100629.34;;;4.12;86.87
67373;BME280;54257;54.496;18.412;2023-04-19T02:29:52;100627.64;;;4.12;86.64
67373;BME280;54257;54.496;18.412;2023-04-19T02:32:19;100627.08;;;4.11;86.88
67373;BME280;54257;54.496;18.412;2023-04-19T02:34:47;100624.79;;;4.09;87.20
67373;BME280;54257;54.496;18.412;2023-04-19T02:37:14;100625.48;;;4.09;87.06
67373;BME280;54257;54.496;18.412;2023-04-19T02:39:41;100627.14;;;4.09;87.09
67373;BME280;54257;54.496;18.412;2023-04-19T02:42:08;100624.38;;;4.08;87.01
67373;BME280;54257;54.496;18.412;2023-04-19T02:44:35;100625.64;;;4.06;87.23
67373;BME280;54257;54.496;18.412;2023-04-19T02:47:02;100619.30;;;4.05;87.26
67373;BME280;54257;54.496;18.412;2023-04-19T02:49:29;100616.92;;;4.04;87.35
67373;BME280;54257;54.496;18.412;2023-04-19T02:52:00;100614.90;;;4.04;87.23
67373;BME280;54257;54.496;18.412;2023-04-19T02:54:27;100613.37;;;4.04;87.42
67373;BME280;54257;54.496;18.412;2023-04-19T02:56:54;100613.17;;;4.04;87.36
67373;BME280;54257;54.496;18.412;2023-04-19T02:59:23;100609.07;;;4.03;87.61
67373;BME280;54257;54.496;18.412;2023-04-19T03:01:50;100608.35;;;4.02;87.65
67373;BME280;54257;54.496;18.412;2023-04-19T03:04:17;100607.33;;;4.02;87.28
67373;BME280;54257;54.496;18.412;2023-04-19T03:06:45;100603.60;;;4.02;87.29
67373;BME280;54257;54.496;18.412;2023-04-19T03:09:12;100605.27;;;4.01;87.28
67373;BME280;54257;54.496;18.412;2023-04-19T03:11:39;100603.88;;;4.00;87.63
67373;BME280;54257;54.496;18.412;2023-04-19T03:14:06;100602.88;;;4.01;87.40
67373;BME280;54257;54.496;18.412;2023-04-19T03:16:34;100595.40;;;4.00;87.61
67373;BME280;54257;54.496;18.412;2023-04-19T03:19:02;100599.80;;;4.00;87.33
67373;BME280;54257;54.496;18.412;2023-04-19T03:21:30;100597.85;;;3.99;87.38
67373;BME280;54257;54.496;18.412;2023-04-19T03:23:57;100602.89;;;3.98;87.22
67373;BME280;54257;54.496;18.412;2023-04-19T03:26:24;100602.04;;;3.98;87.43
67373;BME280;54257;54.496;18.412;2023-04-19T03:28:52;100602.20;;;3.98;87.35
67373;BME280;54257;54.496;18.412;2023-04-19T03:31:19;100603.23;;;3.98;87.32
67373;BME280;54257;54.496;18.412;2023-04-19T03:33:46;100602.34;;;3.97;87.10
67373;BME280;54257;54.496;18.412;2023-04-19T03:36:14;100601.15;;;3.97;87.25
67373;BME280;54257;54.496;18.412;2023-04-19T03:38:41;100598.58;;;3.96;87.22
67373;BME280;54257;54.496;18.412;2023-04-19T03:41:24;100597.02;;;3.96;87.23
67373;BME280;54257;54.496;18.412;2023-04-19T03:43:52;100597.52;;;3.96;87.02
67373;BME280;54257;54.496;18.412;2023-04-19T03:46:19;100593.95;;;3.95;87.06
67373;BME280;54257;54.496;18.412;2023-04-19T03:48:46;100593.31;;;3.96;87.14
67373;BME280;54257;54.496;18.412;2023-04-19T03:51:14;100594.11;;;3.95;87.25
67373;BME280;54257;54.496;18.412;2023-04-19T03:53:42;100590.94;;;3.89;87.73
67373;BME280;54257;54.496;18.412;2023-04-19T03:56:09;100591.62;;;3.89;88.00
67373;BME280;54257;54.496;18.412;2023-04-19T03:58:36;100589.11;;;3.90;88.13
67373;BME280;54257;54.496;18.412;2023-04-19T04:01:03;100591.96;;;3.92;88.06
67373;BME280;54257;54.496;18.412;2023-04-19T04:03:32;100589.97;;;3.93;87.89
67373;BME280;54257;54.496;18.412;2023-04-19T04:06:00;100592.45;;;3.95;88.00
67373;BME280;54257;54.496;18.412;2023-04-19T04:08:27;100592.16;;;4.00;88.03
67373;BME280;54257;54.496;18.412;2023-04-19T04:10:54;100594.07;;;4.00;88.40
67373;BME280;54257;54.496;18.412;2023-04-19T04:13:21;100596.29;;;4.04;88.26
67373;BME280;54257;54.496;18.412;2023-04-19T04:15:48;100589.56;;;4.07;88.15
67373;BME280;54257;54.496;18.412;2023-04-19T04:18:16;100591.44;;;4.11;88.23
67373;BME280;54257;54.496;18.412;2023-04-19T04:20:46;100587.91;;;4.15;88.41
67373;BME280;54257;54.496;18.412;2023-04-19T04:23:13;100589.52;;;4.20;88.21
67373;BME280;54257;54.496;18.412;2023-04-19T04:25:40;100592.96;;;4.25;88.13
67373;BME280;54257;54.496;18.412;2023-04-19T04:28:08;100591.14;;;4.28;88.10
67373;BME280;54257;54.496;18.412;2023-04-19T04:30:36;100590.98;;;4.32;87.87
67373;BME280;54257;54.496;18.412;2023-04-19T04:33:06;100593.02;;;4.35;87.76
67373;BME280;54257;54.496;18.412;2023-04-19T04:35:34;100594.65;;;4.38;87.51
67373;BME280;54257;54.496;18.412;2023-04-19T04:38:01;100585.50;;;4.40;87.34
67373;BME280;54257;54.496;18.412;2023-04-19T04:40:29;100591.74;;;4.43;87.23
67373;BME280;54257;54.496;18.412;2023-04-19T04:42:56;100583.04;;;4.45;87.10
67373;BME280;54257;54.496;18.412;2023-04-19T04:45:23;100580.86;;;4.48;86.96
67373;BME280;54257;54.496;18.412;2023-04-19T04:47:51;100580.38;;;4.53;86.64
67373;BME280;54257;54.496;18.412;2023-04-19T04:50:18;100582.77;;;4.57;86.63
67373;BME280;54257;54.496;18.412;2023-04-19T04:52:45;100580.94;;;4.60;86.42
67373;BME280;54257;54.496;18.412;2023-04-19T04:55:13;100584.19;;;4.64;86.30
67373;BME280;54257;54.496;18.412;2023-04-19T04:57:40;100579.33;;;4.68;85.90
67373;BME280;54257;54.496;18.412;2023-04-19T05:00:08;100583.79;;;4.73;86.02
67373;BME280;54257;54.496;18.412;2023-04-19T05:02:37;100583.45;;;4.76;85.44
67373;BME280;54257;54.496;18.412;2023-04-19T05:05:04;100585.48;;;4.80;85.27
67373;BME280;54257;54.496;18.412;2023-04-19T05:07:31;100589.05;;;4.84;85.16
67373;BME280;54257;54.496;18.412;2023-04-19T05:09:58;100589.64;;;4.86;85.09
67373;BME280;54257;54.496;18.412;2023-04-19T05:12:26;100591.09;;;4.88;84.90
67373;BME280;54257;54.496;18.412;2023-04-19T05:14:53;100591.45;;;4.88;84.75
67373;BME280;54257;54.496;18.412;2023-04-19T05:17:20;100594.09;;;4.90;84.54
67373;BME280;54257;54.496;18.412;2023-04-19T05:19:50;100589.52;;;4.90;84.26
67373;BME280;54257;54.496;18.412;2023-04-19T05:22:18;100590.08;;;4.91;83.78
67373;BME280;54257;54.496;18.412;2023-04-19T05:24:45;100591.11;;;4.91;83.73
67373;BME280;54257;54.496;18.412;2023-04-19T05:27:13;100593.86;;;4.92;83.51
67373;BME280;54257;54.496;18.412;2023-04-19T05:29:40;100594.25;;;4.93;83.33
67373;BME280;54257;54.496;18.412;2023-04-19T05:32:10;100593.32;;;4.95;83.20
67373;BME280;54257;54.496;18.412;2023-04-19T05:34:40;100592.49;;;4.98;83.08
67373;BME280;54257;54.496;18.412;2023-04-19T05:37:07;100590.93;;;5.01;83.11
67373;BME280;54257;54.496;18.412;2023-04-19T05:39:34;100585.27;;;5.06;82.99
67373;BME280;54257;54.496;18.412;2023-04-19T05:42:01;100582.52;;;5.09;82.23
67373;BME280;54257;54.496;18.412;2023-04-19T05:44:29;100581.47;;;5.12;82.24
67373;BME280;54257;54.496;18.412;2023-04-19T05:46:56;100582.41;;;5.14;81.66
67373;BME280;54257;54.496;18.412;2023-04-19T05:49:23;100577.94;;;5.16;81.35
67373;BME280;54257;54.496;18.412;2023-04-19T05:51:50;100571.75;;;5.18;81.20
67373;BME280;54257;54.496;18.412;2023-04-19T05:54:18;100573.30;;;5.18;81.21
67373;BME280;54257;54.496;18.412;2023-04-19T05:56:45;100566.84;;;5.18;80.48
67373;BME280;54257;54.496;18.412;2023-04-19T05:59:12;100563.96;;;5.18;80.42
67373;BME280;54257;54.496;18.412;2023-04-19T06:01:40;100559.44;;;5.19;80.20
67373;BME280;54257;54.496;18.412;2023-04-19T06:04:07;100557.64;;;5.20;80.16
67373;BME280;54257;54.496;18.412;2023-04-19T06:06:34;100557.61;;;5.23;79.73
67373;BME280;54257;54.496;18.412;2023-04-19T06:09:01;100558.70;;;5.24;79.67
67373;BME280;54257;54.496;18.412;2023-04-19T06:11:30;100562.73;;;5.27;79.53
67373;BME280;54257;54.496;18.412;2023-04-19T06:13:57;100556.99;;;5.31;79.19
67373;BME280;54257;54.496;18.412;2023-04-19T06:16:24;100557.67;;;5.35;78.88
67373;BME280;54257;54.496;18.412;2023-04-19T06:18:51;100556.17;;;5.39;78.79
67373;BME280;54257;54.496;18.412;2023-04-19T06:21:18;100554.06;;;5.42;78.59
67373;BME280;54257;54.496;18.412;2023-04-19T06:23:45;100557.55;;;5.47;78.59
67373;BME280;54257;54.496;18.412;2023-04-19T06:26:12;100550.29;;;5.51;78.03
67373;BME280;54257;54.496;18.412;2023-04-19T06:28:43;100547.02;;;5.61;78.31
67373;BME280;54257;54.496;18.412;2023-04-19T06:31:09;100538.69;;;5.72;78.01
67373;BME280;54257;54.496;18.412;2023-04-19T06:33:38;100541.98;;;5.81;77.35
67373;BME280;54257;54.496;18.412;2023-04-19T06:36:06;100543.86;;;5.92;77.16
67373;BME280;54257;54.496;18.412;2023-04-19T06:38:33;100539.91;;;6.02;76.14
67373;BME280;54257;54.496;18.412;2023-04-19T06:41:01;100540.42;;;6.25;76.26
67373;BME280;54257;54.496;18.412;2023-04-19T06:43:28;100536.30;;;6.52;75.14
67373;BME280;54257;54.496;18.412;2023-04-19T06:45:59;100537.52;;;6.73;74.80
67373;BME280;54257;54.496;18.412;2023-04-19T06:48:26;100542.38;;;6.88;73.02
67373;BME280;54257;54.496;18.412;2023-04-19T06:50:54;100538.41;;;7.03;72.17
67373;BME280;54257;54.496;18.412;2023-04-19T06:53:22;100533.58;;;7.23;71.32
67373;BME280;54257;54.496;18.412;2023-04-19T06:55:58;100538.64;;;7.40;70.51
67373;BME280;54257;54.496;18.412;2023-04-19T06:58:28;100538.68;;;7.58;70.48
67373;BME280;54257;54.496;18.412;2023-04-19T07:00:55;100546.36;;;7.77;69.89
67373;BME280;54257;54.496;18.412;2023-04-19T07:03:22;100556.83;;;7.93;69.63
67373;BME280;54257;54.496;18.412;2023-04-19T07:05:49;100555.23;;;8.06;68.14
67373;BME280;54257;54.496;18.412;2023-04-19T07:08:22;100548.52;;;8.18;67.20
67373;BME280;54257;54.496;18.412;2023-04-19T07:10:49;100554.33;;;8.23;66.35
67373;BME280;54257;54.496;18.412;2023-04-19T07:13:16;100559.88;;;8.26;66.84
67373;BME280;54257;54.496;18.412;2023-04-19T07:15:44;100562.02;;;8.29;66.66
67373;BME280;54257;54.496;18.412;2023-04-19T07:18:11;100561.77;;;8.22;65.09
67373;BME280;54257;54.496;18.412;2023-04-19T07:20:40;100558.44;;;8.19;65.53
67373;BME280;54257;54.496;18.412;2023-04-19T07:23:10;100551.30;;;8.24;65.07
67373;BME280;54257;54.496;18.412;2023-04-19T07:25:37;100550.63;;;8.29;65.74
67373;BME280;54257;54.496;18.412;2023-04-19T07:28:04;100545.13;;;8.41;65.99
67373;BME280;54257;54.496;18.412;2023-04-19T07:30:31;100544.02;;;8.63;65.54
67373;BME280;54257;54.496;18.412;2023-04-19T07:32:58;100541.55;;;8.76;65.54
67373;BME280;54257;54.496;18.412;2023-04-19T07:35:25;100544.65;;;8.82;65.09
67373;BME280;54257;54.496;18.412;2023-04-19T07:37:52;100545.35;;;8.83;64.23
67373;BME280;54257;54.496;18.412;2023-04-19T07:40:19;100545.16;;;8.82;63.18
67373;BME280;54257;54.496;18.412;2023-04-19T07:42:46;100545.43;;;8.75;62.40
67373;BME280;54257;54.496;18.412;2023-04-19T07:45:13;100539.21;;;8.73;62.54
67373;BME280;54257;54.496;18.412;2023-04-19T07:47:40;100536.55;;;8.75;63.10
67373;BME280;54257;54.496;18.412;2023-04-19T07:50:08;100531.11;;;8.85;62.11
67373;BME280;54257;54.496;18.412;2023-04-19T07:52:35;100524.34;;;9.03;62.41
67373;BME280;54257;54.496;18.412;2023-04-19T07:55:02;100524.59;;;9.21;61.84
67373;BME280;54257;54.496;18.412;2023-04-19T07:57:29;100515.53;;;9.43;60.90
67373;BME280;54257;54.496;18.412;2023-04-19T07:59:57;100508.17;;;9.53;60.35
67373;BME280;54257;54.496;18.412;2023-04-19T08:02:25;100503.34;;;9.69;60.31
67373;BME280;54257;54.496;18.412;2023-04-19T08:04:55;100504.29;;;9.72;58.31
67373;BME280;54257;54.496;18.412;2023-04-19T08:07:23;100513.85;;;9.61;58.13
67373;BME280;54257;54.496;18.412;2023-04-19T08:09:51;100522.58;;;9.33;58.16
67373;BME280;54257;54.496;18.412;2023-04-19T08:12:18;100523.10;;;9.17;59.05
67373;BME280;54257;54.496;18.412;2023-04-19T08:14:45;100514.93;;;9.17;59.93
67373;BME280;54257;54.496;18.412;2023-04-19T08:17:14;100513.91;;;9.07;59.67
67373;BME280;54257;54.496;18.412;2023-04-19T08:19:43;100514.65;;;8.82;59.73
67373;BME280;54257;54.496;18.412;2023-04-19T08:22:10;100528.64;;;8.52;60.09
67373;BME280;54257;54.496;18.412;2023-04-19T08:24:37;100537.98;;;8.28;61.37
67373;BME280;54257;54.496;18.412;2023-04-19T08:27:04;100527.27;;;8.08;62.23
67373;BME280;54257;54.496;18.412;2023-04-19T08:29:31;100525.52;;;7.98;62.41
67373;BME280;54257;54.496;18.412;2023-04-19T08:31:59;100526.88;;;7.88;63.08
67373;BME280;54257;54.496;18.412;2023-04-19T08:34:27;100526.38;;;7.79;63.27
67373;BME280;54257;54.496;18.412;2023-04-19T08:36:54;100521.94;;;7.70;63.64
67373;BME280;54257;54.496;18.412;2023-04-19T08:39:22;100520.15;;;7.63;64.52
67373;BME280;54257;54.496;18.412;2023-04-19T08:41:50;100523.38;;;7.54;64.70
67373;BME280;54257;54.496;18.412;2023-04-19T08:44:18;100528.21;;;7.42;64.90
67373;BME280;54257;54.496;18.412;2023-04-19T08:46:48;100536.82;;;7.37;65.49
67373;BME280;54257;54.496;18.412;2023-04-19T08:49:16;100537.34;;;7.28;65.73
67373;BME280;54257;54.496;18.412;2023-04-19T08:51:48;100538.54;;;7.19;66.29
67373;BME280;54257;54.496;18.412;2023-04-19T08:54:20;100534.17;;;7.04;66.09
67373;BME280;54257;54.496;18.412;2023-04-19T08:56:48;100529.55;;;6.94;66.58
67373;BME280;54257;54.496;18.412;2023-04-19T08:59:15;100534.84;;;6.91;67.32
67373;BME280;54257;54.496;18.412;2023-04-19T09:01:42;100531.31;;;6.87;67.32
67373;BME280;54257;54.496;18.412;2023-04-19T09:04:09;100535.06;;;6.83;67.66
67373;BME280;54257;54.496;18.412;2023-04-19T09:06:37;100533.54;;;6.75;67.71
67373;BME280;54257;54.496;18.412;2023-04-19T09:09:24;100530.21;;;6.69;68.00
67373;BME280;54257;54.496;18.412;2023-04-19T09:11:51;100526.96;;;6.64;68.66
67373;BME280;54257;54.496;18.412;2023-04-19T09:14:20;100526.73;;;6.62;68.82
67373;BME280;54257;54.496;18.412;2023-04-19T09:16:48;100525.02;;;6.58;69.08
67373;BME280;54257;54.496;18.412;2023-04-19T09:19:17;100526.88;;;6.58;69.11
67373;BME280;54257;54.496;18.412;2023-04-19T09:21:44;100526.32;;;6.57;69.47
67373;BME280;54257;54.496;18.412;2023-04-19T09:24:12;100521.02;;;6.56;69.56
67373;BME280;54257;54.496;18.412;2023-04-19T09:26:53;100520.55;;;6.53;70.11
67373;BME280;54257;54.496;18.412;2023-04-19T09:29:20;100516.47;;;6.49;71.42
67373;BME280;54257;54.496;18.412;2023-04-19T09:31:57;100520.92;;;6.45;72.47
67373;BME280;54257;54.496;18.412;2023-04-19T09:34:24;100522.33;;;6.39;73.18
67373;BME280;54257;54.496;18.412;2023-04-19T09:36:54;100527.56;;;6.34;73.91
67373;BME280;54257;54.496;18.412;2023-04-19T09:39:31;100527.11;;;6.27;74.16
67373;BME280;54257;54.496;18.412;2023-04-19T09:42:00;100515.15;;;6.18;75.03
67373;BME280;54257;54.496;18.412;2023-04-19T09:44:28;100519.99;;;6.08;75.90
67373;BME280;54257;54.496;18.412;2023-04-19T09:46:55;100523.20;;;5.96;76.79
67373;BME280;54257;54.496;18.412;2023-04-19T09:49:23;100525.21;;;5.81;78.41
67373;BME280;54257;54.496;18.412;2023-04-19T09:51:52;100516.71;;;5.73;78.74
67373;BME280;54257;54.496;18.412;2023-04-19T09:54:21;100516.17;;;5.65;80.08
67373;BME280;54257;54.496;18.412;2023-04-19T09:56:50;100509.23;;;5.57;80.82
67373;BME280;54257;54.496;18.412;2023-04-19T09:59:18;100508.08;;;5.50;81.47
67373;BME280;54257;54.496;18.412;2023-04-19T10:01:53;100505.67;;;5.43;82.02
67373;BME280;54257;54.496;18.412;2023-04-19T10:04:21;100506.02;;;5.35;82.60
67373;BME280;54257;54.496;18.412;2023-04-19T10:06:51;100505.52;;;5.31;83.11
67373;BME280;54257;54.496;18.412;2023-04-19T10:09:20;100501.35;;;5.29;83.61
67373;BME280;54257;54.496;18.412;2023-04-19T10:11:49;100503.20;;;5.26;84.08
67373;BME280;54257;54.496;18.412;2023-04-19T10:14:27;100504.20;;;5.22;84.80
67373;BME280;54257;54.496;18.412;2023-04-19T10:17:00;100505.55;;;5.15;85.72
67373;BME280;54257;54.496;18.412;2023-04-19T10:19:29;100512.08;;;5.10;85.61
67373;BME280;54257;54.496;18.412;2023-04-19T10:21:57;100514.81;;;5.02;86.48
67373;BME280;54257;54.496;18.412;2023-04-19T10:24:24;100519.30;;;5.01;86.41
67373;BME280;54257;54.496;18.412;2023-04-19T10:27:08;100526.05;;;4.97;87.39
67373;BME280;54257;54.496;18.412;2023-04-19T10:29:57;100523.30;;;4.92;87.68
67373;BME280;54257;54.496;18.412;2023-04-19T10:32:39;100535.48;;;4.89;88.63
67373;BME280;54257;54.496;18.412;2023-04-19T10:37:38;100528.54;;;4.82;89.02
67373;BME280;54257;54.496;18.412;2023-04-19T10:40:08;100521.41;;;4.78;89.29
67373;BME280;54257;54.496;18.412;2023-04-19T10:45:36;100520.04;;;4.70;89.48
67373;BME280;54257;54.496;18.412;2023-04-19T10:48:04;100507.95;;;4.69;90.11
67373;BME280;54257;54.496;18.412;2023-04-19T10:51:25;100505.20;;;4.68;90.02
67373;BME280;54257;54.496;18.412;2023-04-19T10:54:05;100495.27;;;4.66;91.11
67373;BME280;54257;54.496;18.412;2023-04-19T11:01:47;100490.65;;;4.61;92.13
67373;BME280;54257;54.496;18.412;2023-04-19T11:11:49;100487.30;;;4.55;92.73
67373;BME280;54257;54.496;18.412;2023-04-19T11:14:19;100490.84;;;4.55;93.03
67373;BME280;54257;54.496;18.412;2023-04-19T11:16:46;100492.86;;;4.55;93.43
67373;BME280;54257;54.496;18.412;2023-04-19T11:19:17;100490.96;;;4.54;93.77
67373;BME280;54257;54.496;18.412;2023-04-19T11:21:45;100489.52;;;4.56;93.35
67373;BME280;54257;54.496;18.412;2023-04-19T11:24:13;100483.58;;;4.55;93.97
67373;BME280;54257;54.496;18.412;2023-04-19T11:26:44;100485.06;;;4.58;94.02
67373;BME280;54257;54.496;18.412;2023-04-19T11:29:12;100484.95;;;4.59;93.94
67373;BME280;54257;54.496;18.412;2023-04-19T11:31:39;100484.88;;;4.61;93.92
67373;BME280;54257;54.496;18.412;2023-04-19T11:34:06;100481.91;;;4.63;94.29
67373;BME280;54257;54.496;18.412;2023-04-19T11:36:33;100476.91;;;4.64;94.26
67373;BME280;54257;54.496;18.412;2023-04-19T11:39:05;100477.09;;;4.68;94.25
67373;BME280;54257;54.496;18.412;2023-04-19T11:41:39;100476.14;;;4.69;94.20
67373;BME280;54257;54.496;18.412;2023-04-19T11:44:13;100470.70;;;4.72;94.49
67373;BME280;54257;54.496;18.412;2023-04-19T11:46:40;100471.55;;;4.75;94.42
67373;BME280;54257;54.496;18.412;2023-04-19T11:49:08;100465.13;;;4.79;94.69
67373;BME280;54257;54.496;18.412;2023-04-19T11:51:40;100467.11;;;4.82;94.80
67373;BME280;54257;54.496;18.412;2023-04-19T11:54:12;100469.09;;;4.85;94.61
67373;BME280;54257;54.496;18.412;2023-04-19T11:56:59;100462.98;;;4.88;94.50
67373;BME280;54257;54.496;18.412;2023-04-19T11:59:28;100470.41;;;4.91;94.40
67373;BME280;54257;54.496;18.412;2023-04-19T12:04:33;100463.68;;;4.98;94.02
67373;BME280;54257;54.496;18.412;2023-04-19T12:07:02;100463.98;;;5.01;93.57
67373;BME280;54257;54.496;18.412;2023-04-19T12:09:32;100463.05;;;5.03;93.40
67373;BME280;54257;54.496;18.412;2023-04-19T12:12:01;100460.84;;;5.07;93.22
67373;BME280;54257;54.496;18.412;2023-04-19T12:14:29;100455.54;;;5.09;93.25
67373;BME280;54257;54.496;18.412;2023-04-19T12:17:11;100454.02;;;5.13;93.16
67373;BME280;54257;54.496;18.412;2023-04-19T12:19:46;100449.40;;;5.16;92.89
67373;BME280;54257;54.496;18.412;2023-04-19T12:22:16;100447.89;;;5.20;92.64
67373;BME280;54257;54.496;18.412;2023-04-19T12:24:50;100449.96;;;5.24;92.62
67373;BME280;54257;54.496;18.412;2023-04-19T12:27:17;100448.35;;;5.29;92.39
67373;BME280;54257;54.496;18.412;2023-04-19T12:29:45;100447.91;;;5.35;92.10
67373;BME280;54257;54.496;18.412;2023-04-19T12:32:12;100445.41;;;5.40;91.72
67373;BME280;54257;54.496;18.412;2023-04-19T12:34:41;100450.54;;;5.45;91.29
67373;BME280;54257;54.496;18.412;2023-04-19T12:37:08;100450.48;;;5.50;91.31
67373;BME280;54257;54.496;18.412;2023-04-19T12:39:35;100444.25;;;5.55;90.92
67373;BME280;54257;54.496;18.412;2023-04-19T12:42:03;100435.90;;;5.61;90.81
67373;BME280;54257;54.496;18.412;2023-04-19T12:44:31;100437.52;;;5.68;90.30
67373;BME280;54257;54.496;18.412;2023-04-19T12:46:59;100434.41;;;5.75;90.35
67373;BME280;54257;54.496;18.412;2023-04-19T12:49:26;100433.21;;;5.82;90.52
67373;BME280;54257;54.496;18.412;2023-04-19T12:51:53;100425.81;;;5.91;90.36
67373;BME280;54257;54.496;18.412;2023-04-19T12:54:20;100425.86;;;6.00;90.41
67373;BME280;54257;54.496;18.412;2023-04-19T12:56:47;100425.66;;;6.07;89.94
67373;BME280;54257;54.496;18.412;2023-04-19T12:59:14;100423.34;;;6.12;89.25
67373;BME280;54257;54.496;18.412;2023-04-19T13:01:41;100427.63;;;6.17;88.69
67373;BME280;54257;54.496;18.412;2023-04-19T13:04:08;100430.16;;;6.21;88.38
67373;BME280;54257;54.496;18.412;2023-04-19T13:06:40;100437.86;;;6.27;88.19
67373;BME280;54257;54.496;18.412;2023-04-19T13:09:08;100438.84;;;6.34;88.17
67373;BME280;54257;54.496;18.412;2023-04-19T13:11:37;100443.58;;;6.42;87.47
67373;BME280;54257;54.496;18.412;2023-04-19T13:14:06;100442.23;;;6.51;86.88
67373;BME280;54257;54.496;18.412;2023-04-19T13:16:52;100440.09;;;6.65;86.75
67373;BME280;54257;54.496;18.412;2023-04-19T13:19:20;100434.84;;;6.78;86.12